Time;durP1;ratioP1;P1;durP2;ratioP2;P2;SDS_P1;SDS_P2;PMS_P1;PMS_P2;Temp;Humidity;BMP_temperature;BMP_pressure;BME280_temperature;BME280_humidity;BME280_pressure;Samples;Min_cycle;Max_cycle;Signal;HPM_P1;HPM_P2
2021/11/11 00:01:08;;;;;;;14.85;10.90;;;;;;;5.80;62.58;95866.19;829116;71;29705;-80
2021/11/11 00:16:09;;;;;;;12.60;8.98;;;;;;;5.74;62.21;95855.88;834205;71;30293;-79
2021/11/11 00:31:08;;;;;;;13.00;9.05;;;;;;;5.61;62.63;95849.03;827967;71;29336;-82
2021/11/11 00:46:10;;;;;;;11.35;8.65;;;;;;;5.57;62.72;95842.68;829869;70;30004;-79
2021/11/11 01:01:09;;;;;;;11.50;8.80;;;;;;;5.49;63.09;95839.09;829373;71;29852;-81
2021/11/11 01:16:09;;;;;;;10.50;8.55;;;;;;;5.42;63.39;95833.98;833764;71;30256;-81
2021/11/11 01:31:08;;;;;;;11.80;8.68;;;;;;;5.32;63.25;95828.52;827915;71;29621;-81
2021/11/11 01:46:14;;;;;;;11.33;8.33;;;;;;;5.28;62.92;95826.86;792985;74;32880;-79
2021/11/11 02:01:24;;;;;;;11.25;9.00;;;;;;;5.22;64.19;95818.12;833820;71;32760;-80
2021/11/11 02:16:15;;;;;;;11.85;8.50;;;;;;;5.22;64.98;95803.02;826863;71;32734;-79
2021/11/11 02:31:08;;;;;;;9.45;7.83;;;;;;;5.16;64.88;95794.80;834193;71;29323;-81
2021/11/11 02:46:08;;;;;;;9.18;7.95;;;;;;;5.14;65.33;95792.41;828215;71;30209;-81
2021/11/11 03:16:14;;;;;;;14.00;8.48;;;;;;;5.01;66.28;95786.09;835361;71;33168;-80
2021/11/11 03:31:24;;;;;;;;;;;;;;;;;;;;;
2021/11/11 03:46:15;;;;;;;11.15;8.98;;;;;;;5.07;65.44;95764.41;829118;70;32748;-81
2021/11/11 04:01:10;;;;;;;11.97;9.20;;;;;;;4.98;65.41;95741.01;829830;71;30021;-81
2021/11/11 04:16:14;;;;;;;14.35;10.90;;;;;;;4.89;65.53;95743.65;829439;71;32289;-79
2021/11/11 04:31:17;;;;;;;14.00;9.65;;;;;;;4.81;65.77;95737.73;830025;71;29425;-80
2021/11/11 05:16:14;;;;;;;14.75;12.00;;;;;;;4.61;66.65;95730.69;828801;71;32827;-80
2021/11/11 05:31:45;;;;;;;22.95;12.10;;;;;;;4.54;66.95;95714.37;822878;69;32729;-83
2021/11/11 05:46:35;;;;;;;24.27;15.93;;;;;;;4.79;66.62;95725.45;835572;69;33013;-83
2021/11/11 06:01:22;;;;;;;15.68;12.15;;;;;;;5.44;64.83;95729.66;835668;70;32761;-80
2021/11/11 06:16:46;;;;;;;22.02;12.73;;;;;;;6.39;63.16;95729.44;830213;71;30061;-80
2021/11/11 06:46:46;;;;;;;16.00;13.43;;;;;;;7.99;58.29;95742.09;820206;71;32861;-76
2021/11/11 07:16:52;;;;;;;17.60;12.03;;;;;;;9.19;53.54;95704.27;833101;71;33334;-78
2021/11/11 07:46:40;;;;;;;17.15;13.40;;;;;;;9.46;52.56;95679.08;826990;71;32753;-77
2021/11/11 08:16:22;;;;;;;16.80;13.88;;;;;;;10.01;51.22;95655.56;833226;71;32281;-78
2021/11/11 09:16:49;;;;;;;24.98;16.70;;;;;;;12.25;45.80;95598.17;801582;72;31893;-78
2021/11/11 09:31:47;;;;;;;23.27;17.52;;;;;;;13.08;44.81;95578.16;833050;71;31848;-79
2021/11/11 09:46:51;;;;;;;22.30;19.17;;;;;;;13.34;42.61;95556.36;808886;72;32515;-78
2021/11/11 10:01:53;;;;;;;;;;;;;;;;;;;;;
2021/11/11 10:16:33;;;;;;;26.90;19.20;;;;;;;12.62;44.05;95506.08;836510;71;31720;-80
2021/11/11 11:31:42;;;;;;;26.82;19.35;;;;;;;13.49;43.33;95413.03;866147;68;31659;-79
2021/11/11 12:01:59;;;;;;;26.02;18.95;;;;;;;13.92;43.17;95366.81;823662;71;31829;-78
2021/11/11 16:31:08;;;;;;;39.10;23.75;;;;;;;8.74;59.04;95268.44;836062;69;29773;-79
2021/11/11 16:46:08;;;;;;;52.83;32.42;;;;;;;8.60;61.26;95268.12;827633;71;29714;-83
2021/11/11 17:01:14;;;;;;;56.80;36.13;;;;;;;8.55;61.38;95275.92;827839;71;32742;-83
2021/11/11 17:16:11;;;;;;;59.10;39.38;;;;;;;8.39;60.34;95272.45;828523;71;30451;-80
2021/11/11 17:31:09;;;;;;;62.93;40.38;;;;;;;8.19;60.06;95265.77;828612;71;30997;-83
2021/11/11 17:46:23;;;;;;;62.67;39.23;;;;;;;8.00;59.41;95268.80;832035;71;30548;-80
2021/11/11 18:01:28;;;;;;;59.15;39.38;;;;;;;7.80;59.69;95262.13;830530;71;27802;-85
2021/11/11 18:16:26;;;;;;;59.27;38.50;;;;;;;7.71;59.76;95258.42;820927;71;31472;-82
2021/11/11 18:31:32;;;;;;;54.20;35.80;;;;;;;7.59;59.48;95252.84;818215;71;33324;-85
2021/11/11 18:46:30;;;;;;;48.38;31.30;;;;;;;7.50;58.18;95241.30;835280;71;32709;-77
2021/11/11 19:01:17;;;;;;;47.60;31.80;;;;;;;7.42;57.76;95256.89;828824;71;33504;-82
2021/11/11 19:16:18;;;;;;;51.18;32.15;;;;;;;7.27;58.29;95251.53;834644;71;29705;-80
2021/11/11 19:31:24;;;;;;;46.75;31.30;;;;;;;7.11;58.84;95257.11;828334;71;32888;-81
2021/11/11 20:02:02;;;;;;;51.50;33.28;;;;;;;7.07;58.30;95253.42;835113;70;32954;-83
2021/11/11 21:31:45;;;;;;;32.30;23.10;;;;;;;6.07;59.11;95199.39;781104;75;32921;-84
2021/11/11 21:46:18;;;;;;;31.73;22.30;;;;;;;6.09;59.89;95219.47;830722;71;32644;-82
2021/11/11 22:46:15;;;;;;;28.15;20.35;;;;;;;5.70;61.46;95181.69;833178;70;29978;-86
2021/11/11 23:46:26;;;;;;;22.50;17.48;;;;;;;5.62;63.27;95143.31;829866;71;29368;-83
